Strona główna
METAR-TAF:

METAR-TAF

Lotnisko :

Békéscsaba, Węgry

Szerokość geograficzna: 46-41-00N, Długość geograficzna: 021-09-45E, wysokość: 86 m

Aktualna obserwacja pogody

Raport powstał 42 minut temu, godzina 01:45 UTC
Wiatr 1 kt z kierunków zmiennych
Temperatura 0°C
Wilgotność 74%
Ciśnienie 1016 hPa
Widzialność 10 km lub więcej
Brak chmur poniżej 1500 m i brak chmur cumulonimbus

METAR: LHBC 040145Z VRB01KT CAVOK M00/M04 Q1016

czas: 04:27 (02:27 UTC)


TAF: brakujący

Obserwacja i prognoza pogody dla ponad 4000 lotnisk (raport METAR i TAF).

Dostępne stacje oznaczono żółtymi i czerwonymi punktami na mapie.

Najedź kursorem aby zobaczyć nazwę stacji.

Kliknij aby zobaczyć obserwacje i prognozy pogody.

Aby zmienić mapę: kliknij na zielony przycisk z czarnym krzyżykiem, aby powiększyć; na zielony przycisk z myślnikiem, aby pomniejszyć; na zielone strzałki, aby przejść do map sąsiednich.


METAR-TAF: